createdAt,value
2017-08-21T00:00:22.444Z,0
2017-08-21T00:01:02.979Z,0
2017-08-21T00:01:43.510Z,0
2017-08-21T00:02:24.046Z,0
2017-08-21T00:03:04.576Z,0
2017-08-21T00:03:45.118Z,0
2017-08-21T00:04:25.650Z,0
2017-08-21T00:05:06.204Z,0
2017-08-21T00:05:46.738Z,0
2017-08-21T00:06:27.269Z,0
2017-08-21T00:07:07.808Z,0
2017-08-21T00:07:48.340Z,0
2017-08-21T00:08:28.887Z,0
2017-08-21T00:09:09.431Z,0
2017-08-21T00:09:49.961Z,0
2017-08-21T00:10:30.505Z,0
2017-08-21T00:11:11.035Z,0
2017-08-21T00:11:51.561Z,0
2017-08-21T00:12:32.102Z,0
2017-08-21T00:13:12.639Z,0
2017-08-21T00:13:53.176Z,0
2017-08-21T00:14:33.718Z,0
2017-08-21T00:15:14.256Z,0
2017-08-21T00:15:54.787Z,0
2017-08-21T00:16:35.326Z,0
2017-08-21T00:17:15.867Z,0
2017-08-21T00:17:56.410Z,0
2017-08-21T00:18:36.945Z,0
2017-08-21T00:19:17.483Z,0
2017-08-21T00:19:58.028Z,0
2017-08-21T00:20:38.552Z,0
2017-08-21T00:21:19.081Z,0
2017-08-21T00:21:59.619Z,0
2017-08-21T00:22:40.160Z,0
2017-08-21T00:23:20.700Z,0
2017-08-21T00:24:01.298Z,0
2017-08-21T00:24:41.836Z,0
2017-08-21T00:25:22.375Z,0
2017-08-21T00:26:02.913Z,0
2017-08-21T00:26:43.453Z,0
2017-08-21T00:27:23.991Z,0
2017-08-21T00:28:04.538Z,0
2017-08-21T00:28:45.087Z,0
2017-08-21T00:29:25.621Z,0
2017-08-21T00:30:06.157Z,0
2017-08-21T00:30:46.687Z,0
2017-08-21T00:31:27.232Z,0
2017-08-21T00:32:07.772Z,0
2017-08-21T00:32:48.308Z,0
2017-08-21T00:33:28.848Z,0
2017-08-21T00:34:09.388Z,0
2017-08-21T00:34:49.918Z,0
2017-08-21T00:35:30.449Z,0
2017-08-21T00:36:10.987Z,0
2017-08-21T00:36:51.525Z,0
2017-08-21T00:37:32.065Z,0
2017-08-21T00:38:12.603Z,0
2017-08-21T00:38:53.144Z,0
2017-08-21T00:39:33.683Z,0
2017-08-21T00:40:14.231Z,0
2017-08-21T00:40:54.767Z,0
2017-08-21T00:41:35.306Z,0
2017-08-21T00:42:15.845Z,0
2017-08-21T00:42:56.381Z,0
2017-08-21T00:43:36.918Z,0
2017-08-21T00:44:17.454Z,0
2017-08-21T00:44:57.997Z,0
2017-08-21T00:45:38.541Z,0
2017-08-21T00:46:19.072Z,0
2017-08-21T00:46:59.598Z,0
2017-08-21T00:47:40.146Z,0
2017-08-21T00:48:20.672Z,0
2017-08-21T00:49:01.210Z,0
2017-08-21T00:49:41.750Z,0
2017-08-21T00:50:22.301Z,0
2017-08-21T00:51:02.833Z,0
2017-08-21T00:51:43.363Z,0
2017-08-21T00:52:23.899Z,0
2017-08-21T00:53:04.438Z,0
2017-08-21T00:53:44.977Z,0
2017-08-21T00:54:25.513Z,0
2017-08-21T00:55:06.053Z,0
2017-08-21T00:55:46.571Z,0
2017-08-21T00:56:27.108Z,0
2017-08-21T00:57:07.644Z,0
2017-08-21T00:57:48.189Z,0
2017-08-21T00:58:28.732Z,0
2017-08-21T00:59:09.300Z,0
2017-08-21T00:59:49.847Z,0
2017-08-21T01:00:30.422Z,0
2017-08-21T01:01:10.959Z,0
2017-08-21T01:01:51.499Z,0
2017-08-21T01:02:32.039Z,0
2017-08-21T01:03:12.590Z,0
2017-08-21T01:03:53.179Z,0
2017-08-21T01:04:33.736Z,0
2017-08-21T01:05:14.275Z,0
2017-08-21T01:05:54.814Z,0
2017-08-21T01:06:35.350Z,0
2017-08-21T01:07:15.894Z,0
2017-08-21T01:07:56.433Z,0
2017-08-21T01:08:36.975Z,0
2017-08-21T01:09:17.516Z,0
2017-08-21T01:09:58.053Z,0
2017-08-21T01:10:38.591Z,0
2017-08-21T01:11:19.118Z,0
2017-08-21T01:11:59.663Z,0
2017-08-21T01:12:40.193Z,0
2017-08-21T01:13:20.736Z,0
2017-08-21T01:14:01.276Z,0
2017-08-21T01:14:41.819Z,0
2017-08-21T01:15:22.350Z,0
2017-08-21T01:16:02.885Z,0
2017-08-21T01:16:43.424Z,0
2017-08-21T01:17:23.962Z,0
2017-08-21T01:18:04.504Z,0
2017-08-21T01:18:45.039Z,0
2017-08-21T01:19:25.578Z,0
2017-08-21T01:20:06.109Z,0
2017-08-21T01:20:46.639Z,0
2017-08-21T01:21:27.164Z,0
2017-08-21T01:22:07.705Z,0
2017-08-21T01:22:48.242Z,0
2017-08-21T01:23:28.780Z,0
2017-08-21T01:24:09.326Z,0
2017-08-21T01:24:49.853Z,0
2017-08-21T01:25:30.392Z,0
2017-08-21T01:26:10.926Z,0
2017-08-21T01:26:51.462Z,0
2017-08-21T01:27:31.994Z,0
2017-08-21T01:28:12.537Z,0
2017-08-21T01:28:53.077Z,0
2017-08-21T01:29:33.614Z,0
2017-08-21T01:30:14.151Z,0
2017-08-21T01:30:54.689Z,0
2017-08-21T01:31:35.227Z,0
2017-08-21T01:32:15.814Z,0
2017-08-21T01:32:56.352Z,0
2017-08-21T01:33:36.889Z,0
2017-08-21T01:34:17.432Z,0
2017-08-21T01:34:57.969Z,0
2017-08-21T01:35:38.522Z,0
2017-08-21T01:36:19.060Z,0
2017-08-21T01:36:59.597Z,0
2017-08-21T01:37:40.139Z,0
2017-08-21T01:38:20.678Z,0
2017-08-21T01:39:01.206Z,0
2017-08-21T01:39:41.739Z,0
2017-08-21T01:40:22.278Z,0
2017-08-21T01:41:02.813Z,0
2017-08-21T01:41:43.361Z,0
2017-08-21T01:42:23.902Z,0
2017-08-21T01:43:04.442Z,0
2017-08-21T01:43:44.978Z,0
2017-08-21T01:44:25.515Z,0
2017-08-21T01:45:06.051Z,0
2017-08-21T01:45:46.592Z,0
2017-08-21T01:46:27.126Z,0
2017-08-21T01:47:07.690Z,0
2017-08-21T01:47:48.197Z,0
2017-08-21T01:48:28.751Z,0
2017-08-21T01:49:09.288Z,0
2017-08-21T01:49:49.818Z,0
2017-08-21T01:50:30.354Z,0
2017-08-21T01:51:10.891Z,0
2017-08-21T01:51:51.432Z,0
2017-08-21T01:52:31.977Z,0
2017-08-21T01:53:12.511Z,0
2017-08-21T01:53:53.052Z,0
2017-08-21T01:54:33.591Z,0
2017-08-21T01:55:14.125Z,0
2017-08-21T01:55:54.663Z,0
2017-08-21T01:56:35.195Z,0
2017-08-21T01:57:15.739Z,0
2017-08-21T01:57:56.278Z,0
2017-08-21T01:58:36.821Z,0
2017-08-21T01:59:17.356Z,0
2017-08-21T01:59:57.888Z,0
2017-08-21T02:00:38.428Z,0
2017-08-21T02:01:18.963Z,0
2017-08-21T02:01:59.500Z,0
2017-08-21T02:02:40.045Z,0
2017-08-21T02:03:20.585Z,0
2017-08-21T02:04:01.114Z,0
2017-08-21T02:04:41.663Z,0
2017-08-21T02:05:22.196Z,0
2017-08-21T02:06:02.732Z,0
2017-08-21T02:06:43.269Z,0
2017-08-21T02:07:23.798Z,0
2017-08-21T02:08:04.337Z,0
2017-08-21T02:08:44.877Z,0
2017-08-21T02:09:25.416Z,0
2017-08-21T02:10:05.956Z,0
2017-08-21T02:10:46.493Z,0
2017-08-21T02:11:27.028Z,0
2017-08-21T02:12:07.561Z,0
2017-08-21T02:12:48.094Z,0
2017-08-21T02:13:28.648Z,0
2017-08-21T02:14:09.178Z,0
2017-08-21T02:14:49.719Z,0
2017-08-21T02:15:30.246Z,0
2017-08-21T02:16:10.783Z,0
2017-08-21T02:16:51.320Z,0
2017-08-21T02:17:31.855Z,0
2017-08-21T02:18:12.392Z,0
2017-08-21T02:18:52.958Z,0
2017-08-21T02:19:33.498Z,0
2017-08-21T02:20:14.028Z,0
2017-08-21T02:20:54.565Z,0
2017-08-21T02:21:35.105Z,0
2017-08-21T02:22:15.641Z,0
2017-08-21T02:22:56.211Z,0
2017-08-21T02:23:36.737Z,0
2017-08-21T02:24:17.267Z,0
2017-08-21T02:24:57.802Z,0
2017-08-21T02:25:38.338Z,0
2017-08-21T02:28:13.001Z,0
2017-08-21T02:28:53.540Z,0
2017-08-21T02:29:34.079Z,0
2017-08-21T02:30:14.620Z,0
2017-08-21T02:30:55.148Z,0
2017-08-21T02:31:35.677Z,0
2017-08-21T02:32:16.211Z,0
2017-08-21T02:32:56.745Z,0
2017-08-21T02:33:37.282Z,0
2017-08-21T02:34:17.821Z,0
2017-08-21T02:34:58.362Z,0
2017-08-21T02:35:38.891Z,0
2017-08-21T02:36:19.471Z,0
2017-08-21T02:37:00.002Z,0
2017-08-21T02:37:40.527Z,0
2017-08-21T02:38:21.061Z,0
2017-08-21T02:39:01.599Z,0
2017-08-21T02:39:42.135Z,0
2017-08-21T02:40:22.676Z,0
2017-08-21T02:41:03.199Z,0
2017-08-21T02:41:43.739Z,0
2017-08-21T02:42:24.268Z,0
2017-08-21T02:43:04.802Z,0
2017-08-21T02:43:45.339Z,0
2017-08-21T02:44:25.881Z,0
2017-08-21T02:45:06.422Z,0
2017-08-21T02:45:46.960Z,0
2017-08-21T02:46:27.502Z,0
2017-08-21T02:47:08.035Z,0
2017-08-21T02:47:48.572Z,0
2017-08-21T02:48:29.107Z,0
2017-08-21T02:49:09.643Z,0
2017-08-21T02:49:50.176Z,0
2017-08-21T02:50:30.715Z,0
2017-08-21T02:51:11.231Z,0
2017-08-21T02:51:51.768Z,0
2017-08-21T02:52:32.316Z,0
2017-08-21T02:53:12.860Z,0
2017-08-21T02:53:53.377Z,0
2017-08-21T02:54:33.916Z,0
2017-08-21T02:55:14.452Z,0
2017-08-21T02:55:54.986Z,0
2017-08-21T02:56:35.561Z,0
2017-08-21T02:57:16.093Z,0
2017-08-21T02:57:56.626Z,0
2017-08-21T02:58:37.165Z,0
2017-08-21T02:59:17.700Z,0
2017-08-21T02:59:58.261Z,0
2017-08-21T03:00:38.807Z,0
2017-08-21T03:01:19.336Z,0
2017-08-21T03:01:59.872Z,0
2017-08-21T03:02:40.398Z,0
2017-08-21T03:03:20.935Z,0
2017-08-21T03:04:01.469Z,0
2017-08-21T03:04:42.010Z,0
2017-08-21T03:05:22.565Z,0
2017-08-21T03:06:03.079Z,0
2017-08-21T03:06:43.633Z,0
2017-08-21T03:07:24.151Z,0
2017-08-21T03:08:04.688Z,0
2017-08-21T03:08:45.227Z,0
2017-08-21T03:09:25.763Z,0
2017-08-21T03:10:06.295Z,0
2017-08-21T03:10:46.845Z,0
2017-08-21T03:11:27.368Z,0
2017-08-21T03:12:07.902Z,0
2017-08-21T03:12:48.441Z,0
2017-08-21T03:13:28.974Z,0
2017-08-21T03:14:09.517Z,0
2017-08-21T03:14:50.055Z,0
2017-08-21T03:15:30.599Z,0
2017-08-21T03:16:11.131Z,0
2017-08-21T03:16:51.664Z,0
2017-08-21T03:17:32.206Z,0
2017-08-21T03:18:12.733Z,0
2017-08-21T03:18:53.257Z,0
2017-08-21T03:19:33.778Z,0
2017-08-21T03:20:14.313Z,0
2017-08-21T03:20:54.847Z,0
2017-08-21T03:21:35.384Z,0
2017-08-21T03:22:15.923Z,0
2017-08-21T03:22:56.460Z,0
2017-08-21T03:23:37.006Z,0
2017-08-21T03:24:17.540Z,0
2017-08-21T03:24:58.071Z,0
2017-08-21T03:25:38.611Z,0
2017-08-21T03:26:19.146Z,0
2017-08-21T03:26:59.694Z,0
2017-08-21T03:27:40.234Z,0
2017-08-21T03:28:20.773Z,0
2017-08-21T03:29:01.309Z,0
2017-08-21T03:29:41.838Z,0
2017-08-21T03:30:22.368Z,0
2017-08-21T03:31:02.901Z,0
2017-08-21T03:31:43.432Z,0
2017-08-21T03:32:23.974Z,0
2017-08-21T03:33:04.515Z,0
2017-08-21T03:33:45.044Z,0
2017-08-21T03:34:25.581Z,0
2017-08-21T03:35:06.121Z,0
2017-08-21T03:35:46.678Z,0
2017-08-21T03:36:27.214Z,0
2017-08-21T03:37:07.736Z,0
2017-08-21T03:37:48.270Z,0
2017-08-21T03:38:28.802Z,0
2017-08-21T03:39:09.336Z,0
2017-08-21T03:39:49.873Z,0
2017-08-21T03:40:30.408Z,0
2017-08-21T03:41:10.952Z,0
2017-08-21T03:41:51.491Z,0
2017-08-21T03:42:32.025Z,0
2017-08-21T03:43:12.572Z,0
2017-08-21T03:43:53.106Z,0
2017-08-21T03:44:33.630Z,0
2017-08-21T03:45:14.170Z,0
2017-08-21T03:45:54.709Z,0
2017-08-21T03:46:35.242Z,0
2017-08-21T03:47:15.783Z,0
2017-08-21T03:47:56.325Z,0
2017-08-21T03:48:36.861Z,0
2017-08-21T03:49:17.397Z,0
2017-08-21T03:49:57.933Z,0
2017-08-21T03:50:38.470Z,0
2017-08-21T03:51:19.019Z,0
2017-08-21T03:51:59.612Z,0
2017-08-21T03:52:40.145Z,0
2017-08-21T03:53:20.687Z,0
2017-08-21T03:54:01.204Z,0
2017-08-21T03:54:41.745Z,0
2017-08-21T03:55:22.282Z,0
2017-08-21T03:56:02.822Z,0
2017-08-21T03:56:43.364Z,0
2017-08-21T03:57:23.889Z,0
2017-08-21T03:58:04.677Z,0
2017-08-21T03:58:45.483Z,0
2017-08-21T03:59:26.268Z,0
2017-08-21T04:00:06.995Z,0
2017-08-21T04:00:47.742Z,0
2017-08-21T04:01:28.294Z,0
2017-08-21T04:02:08.820Z,0
2017-08-21T04:02:49.366Z,0
2017-08-21T04:03:29.887Z,0
2017-08-21T04:04:10.427Z,0
2017-08-21T04:04:50.964Z,0
2017-08-21T04:05:31.508Z,0
2017-08-21T04:06:12.041Z,0
2017-08-21T04:06:52.577Z,0
2017-08-21T04:07:33.069Z,0
2017-08-21T04:08:13.600Z,0
2017-08-21T04:08:54.138Z,0
2017-08-21T04:09:34.678Z,0
2017-08-21T04:10:15.193Z,0
2017-08-21T04:10:55.734Z,0
2017-08-21T04:11:36.259Z,0
2017-08-21T04:12:16.794Z,0
2017-08-21T04:12:57.309Z,0
2017-08-21T04:13:37.836Z,0
2017-08-21T04:14:18.380Z,0
2017-08-21T04:14:58.906Z,0
2017-08-21T04:15:39.441Z,0
2017-08-21T04:16:19.977Z,0
2017-08-21T04:17:00.503Z,0
2017-08-21T04:17:41.055Z,0
2017-08-21T04:18:21.576Z,0
2017-08-21T04:19:02.088Z,0
2017-08-21T04:19:42.612Z,0
2017-08-21T04:20:23.138Z,0
2017-08-21T04:21:03.692Z,0
2017-08-21T04:21:44.226Z,0
2017-08-21T04:22:24.755Z,0
2017-08-21T04:23:05.284Z,0
2017-08-21T04:23:45.831Z,0
2017-08-21T04:24:26.358Z,0
2017-08-21T04:25:06.890Z,0
2017-08-21T04:25:47.428Z,0
2017-08-21T04:26:27.958Z,0
2017-08-21T04:27:08.546Z,0
2017-08-21T04:27:49.078Z,0
2017-08-21T04:28:29.591Z,0
2017-08-21T04:29:10.135Z,0
2017-08-21T04:29:50.667Z,0
2017-08-21T04:30:31.200Z,0
2017-08-21T04:31:11.726Z,0
2017-08-21T04:31:52.364Z,0
2017-08-21T04:32:32.828Z,0
2017-08-21T04:33:13.367Z,5
2017-08-21T04:33:53.896Z,5
2017-08-21T04:34:34.429Z,5
2017-08-21T04:35:14.957Z,5
2017-08-21T04:35:55.523Z,5
2017-08-21T04:36:36.020Z,5
2017-08-21T04:37:16.588Z,5
2017-08-21T04:37:57.080Z,5
2017-08-21T04:38:37.612Z,5
2017-08-21T04:39:18.150Z,5
2017-08-21T04:39:58.689Z,5
2017-08-21T04:40:39.218Z,5
2017-08-21T04:41:19.754Z,5
2017-08-21T04:42:00.297Z,5
2017-08-21T04:42:40.830Z,10
2017-08-21T04:43:21.398Z,10
2017-08-21T04:44:01.937Z,10
2017-08-21T04:44:42.462Z,10
2017-08-21T04:45:23.022Z,10
2017-08-21T04:46:03.549Z,10
2017-08-21T04:46:44.070Z,10
2017-08-21T04:47:24.570Z,10
2017-08-21T04:48:05.101Z,10
2017-08-21T04:48:45.615Z,10
2017-08-21T04:49:26.240Z,15
2017-08-21T04:50:06.774Z,15
2017-08-21T04:50:47.301Z,15
2017-08-21T04:51:27.825Z,15
2017-08-21T04:52:08.356Z,15
2017-08-21T04:52:48.906Z,15
2017-08-21T04:53:29.427Z,15
2017-08-21T04:54:09.960Z,15
2017-08-21T04:54:50.469Z,15
2017-08-21T04:55:31.014Z,20
2017-08-21T04:56:11.534Z,20
2017-08-21T04:56:52.070Z,20
2017-08-21T04:57:32.605Z,20
2017-08-21T04:58:13.142Z,20
2017-08-21T04:58:53.679Z,20
2017-08-21T04:59:34.212Z,20
2017-08-21T05:00:14.764Z,20
2017-08-21T05:00:55.293Z,25
2017-08-21T05:01:35.815Z,25
2017-08-21T05:02:16.347Z,25
2017-08-21T05:02:56.877Z,25
2017-08-21T05:03:37.410Z,25
2017-08-21T05:04:17.923Z,25
2017-08-21T05:04:58.484Z,30
2017-08-21T05:05:39.021Z,30
2017-08-21T05:06:19.553Z,30
2017-08-21T05:07:00.097Z,30
2017-08-21T05:07:40.623Z,30
2017-08-21T05:08:21.169Z,30
2017-08-21T05:09:01.708Z,30
2017-08-21T05:09:42.238Z,30
2017-08-21T05:10:22.773Z,35
2017-08-21T05:11:03.313Z,35
2017-08-21T05:11:43.853Z,35
2017-08-21T05:12:24.381Z,35
2017-08-21T05:13:04.912Z,35
2017-08-21T05:13:45.460Z,35
2017-08-21T05:14:25.998Z,40
2017-08-21T05:15:06.521Z,40
2017-08-21T05:15:47.066Z,40
2017-08-21T05:16:27.580Z,40
2017-08-21T05:17:08.108Z,40
2017-08-21T05:17:48.645Z,45
2017-08-21T05:18:29.172Z,45
2017-08-21T05:19:09.705Z,45
2017-08-21T05:19:50.244Z,45
2017-08-21T05:20:30.775Z,45
2017-08-21T05:21:11.303Z,50
2017-08-21T05:21:51.817Z,50
2017-08-21T05:22:32.340Z,50
2017-08-21T05:23:12.878Z,55
2017-08-21T05:23:53.416Z,55
2017-08-21T05:24:33.954Z,60
2017-08-21T05:25:14.491Z,60
2017-08-21T05:25:55.028Z,60
2017-08-21T05:26:35.566Z,60
2017-08-21T05:27:16.100Z,65
2017-08-21T05:27:56.630Z,70
2017-08-21T05:28:37.167Z,70
2017-08-21T05:29:17.693Z,70
2017-08-21T05:29:58.228Z,70
2017-08-21T05:30:38.766Z,70
2017-08-21T05:31:19.302Z,65
2017-08-21T05:31:59.845Z,65
2017-08-21T05:32:40.385Z,65
2017-08-21T05:33:20.922Z,70
2017-08-21T05:34:01.462Z,70
2017-08-21T05:34:41.996Z,70
2017-08-21T05:35:22.532Z,70
2017-08-21T05:36:03.071Z,70
2017-08-21T05:36:43.607Z,75
2017-08-21T05:37:24.146Z,75
2017-08-21T05:38:04.674Z,75
2017-08-21T05:38:45.208Z,80
2017-08-21T05:39:25.746Z,80
2017-08-21T05:40:06.284Z,80
2017-08-21T05:40:46.822Z,80
2017-08-21T05:41:27.360Z,85
2017-08-21T05:42:07.902Z,85
2017-08-21T05:42:48.431Z,85
2017-08-21T05:43:28.969Z,85
2017-08-21T05:44:09.500Z,85
2017-08-21T05:44:50.021Z,85
2017-08-21T05:45:30.576Z,85
2017-08-21T05:46:11.115Z,85
2017-08-21T05:46:51.656Z,85
2017-08-21T05:47:32.197Z,85
2017-08-21T05:48:12.726Z,90
2017-08-21T05:48:53.266Z,90
2017-08-21T05:49:33.802Z,90
2017-08-21T05:50:14.343Z,90
2017-08-21T05:50:54.874Z,90
2017-08-21T05:51:35.421Z,90
2017-08-21T05:52:15.964Z,95
2017-08-21T05:52:56.501Z,95
2017-08-21T05:53:37.045Z,95
2017-08-21T05:54:17.588Z,95
2017-08-21T05:54:58.118Z,100
2017-08-21T05:55:38.651Z,100
2017-08-21T05:56:19.189Z,100
2017-08-21T05:56:59.724Z,100
2017-08-21T05:57:40.262Z,100
2017-08-21T05:58:20.795Z,100
2017-08-21T05:59:01.326Z,100
2017-08-21T05:59:41.861Z,105
2017-08-21T06:00:22.399Z,105
2017-08-21T06:01:02.937Z,105
2017-08-21T06:01:43.479Z,105
2017-08-21T06:02:24.018Z,110
2017-08-21T06:03:04.559Z,110
2017-08-21T06:03:45.100Z,110
2017-08-21T06:04:25.632Z,110
2017-08-21T06:05:06.160Z,110
2017-08-21T06:05:46.699Z,115
2017-08-21T06:06:27.235Z,115
2017-08-21T06:07:07.783Z,115
2017-08-21T06:07:48.325Z,115
2017-08-21T06:08:28.863Z,115
2017-08-21T06:09:09.393Z,115
2017-08-21T06:09:49.932Z,120
2017-08-21T06:10:30.465Z,120
2017-08-21T06:11:11.007Z,120
2017-08-21T06:11:51.540Z,120
2017-08-21T06:12:32.087Z,120
2017-08-21T06:13:12.618Z,120
2017-08-21T06:13:53.151Z,125
2017-08-21T06:14:33.700Z,125
2017-08-21T06:15:14.233Z,125
2017-08-21T06:15:54.770Z,125
2017-08-21T06:16:35.317Z,125
2017-08-21T06:17:15.831Z,125
2017-08-21T06:17:56.363Z,130
2017-08-21T06:18:36.900Z,130
2017-08-21T06:19:17.435Z,130
2017-08-21T06:19:57.977Z,135
2017-08-21T06:20:38.512Z,135
2017-08-21T06:21:19.050Z,135
2017-08-21T06:21:59.595Z,140
2017-08-21T06:22:40.129Z,140
2017-08-21T06:23:20.667Z,140
2017-08-21T06:24:01.198Z,145
2017-08-21T06:24:41.732Z,145
2017-08-21T06:25:22.261Z,145
2017-08-21T06:26:02.799Z,150
2017-08-21T06:26:43.328Z,150
2017-08-21T06:27:23.864Z,150
2017-08-21T06:28:04.382Z,150
2017-08-21T06:28:44.927Z,150
2017-08-21T06:29:25.458Z,150
2017-08-21T06:30:06.006Z,155
2017-08-21T06:30:46.545Z,155
2017-08-21T06:31:27.094Z,155
2017-08-21T06:32:07.640Z,155
2017-08-21T06:32:48.179Z,160
2017-08-21T06:33:28.715Z,160
2017-08-21T06:34:09.249Z,160
2017-08-21T06:34:49.784Z,160
2017-08-21T06:35:30.323Z,160
2017-08-21T06:36:10.859Z,160
2017-08-21T06:36:51.401Z,160
2017-08-21T06:37:31.936Z,160
2017-08-21T06:38:12.455Z,165
2017-08-21T06:38:52.996Z,170
2017-08-21T06:39:33.531Z,165
2017-08-21T06:40:14.065Z,170
2017-08-21T06:40:54.602Z,170
2017-08-21T06:41:35.180Z,170
2017-08-21T06:42:15.715Z,170
2017-08-21T06:42:56.278Z,170
2017-08-21T06:43:36.816Z,175
2017-08-21T06:44:17.357Z,175
2017-08-21T06:44:57.896Z,175
2017-08-21T06:45:38.456Z,180
2017-08-21T06:46:18.998Z,180
2017-08-21T06:46:59.525Z,180
2017-08-21T06:47:40.070Z,180
2017-08-21T06:48:20.599Z,185
2017-08-21T06:49:01.134Z,185
2017-08-21T06:49:41.672Z,185
2017-08-21T06:50:22.236Z,185
2017-08-21T06:51:02.792Z,190
2017-08-21T06:51:43.328Z,190
2017-08-21T06:52:23.863Z,190
2017-08-21T06:53:04.416Z,190
2017-08-21T06:53:45.501Z,190
2017-08-21T06:54:25.563Z,190
2017-08-21T06:55:06.107Z,190
2017-08-21T06:55:46.637Z,195
2017-08-21T06:56:27.208Z,195
2017-08-21T06:57:07.759Z,195
2017-08-21T06:57:48.299Z,195
2017-08-21T06:58:28.856Z,195
2017-08-21T06:59:09.409Z,200
2017-08-21T06:59:49.941Z,200
2017-08-21T07:00:30.503Z,200
2017-08-21T07:01:11.049Z,205
2017-08-21T07:01:51.576Z,205
2017-08-21T07:02:32.109Z,205
2017-08-21T07:03:12.637Z,205
2017-08-21T07:03:53.177Z,205
2017-08-21T07:04:33.716Z,210
2017-08-21T07:05:14.245Z,210
2017-08-21T07:05:54.791Z,210
2017-08-21T07:06:35.343Z,215
2017-08-21T07:07:15.882Z,215
2017-08-21T07:07:56.424Z,215
2017-08-21T07:08:36.954Z,220
2017-08-21T07:09:17.490Z,220
2017-08-21T07:09:58.022Z,220
2017-08-21T07:10:38.560Z,220
2017-08-21T07:11:19.095Z,225
2017-08-21T07:11:59.627Z,225
2017-08-21T07:12:40.176Z,225
2017-08-21T07:13:20.700Z,225
2017-08-21T07:14:01.240Z,230
2017-08-21T07:14:41.775Z,230
2017-08-21T07:15:22.324Z,235
2017-08-21T07:16:02.846Z,235
2017-08-21T07:16:43.389Z,240
2017-08-21T07:17:23.930Z,240
2017-08-21T07:18:04.459Z,240
2017-08-21T07:18:44.993Z,245
2017-08-21T07:19:25.536Z,245
2017-08-21T07:20:06.074Z,245
2017-08-21T07:20:46.616Z,245
2017-08-21T07:21:27.154Z,250
2017-08-21T07:22:07.700Z,250
2017-08-21T07:22:48.223Z,250
2017-08-21T07:23:28.743Z,255
2017-08-21T07:24:09.272Z,255
2017-08-21T07:24:49.797Z,255
2017-08-21T07:25:30.324Z,260
2017-08-21T07:26:10.851Z,265
2017-08-21T07:26:51.397Z,260
2017-08-21T07:27:31.932Z,260
2017-08-21T07:28:12.468Z,265
2017-08-21T07:28:53.013Z,265
2017-08-21T07:29:33.549Z,265
2017-08-21T07:30:14.074Z,270
2017-08-21T07:30:54.620Z,270
2017-08-21T07:31:35.158Z,275
2017-08-21T07:32:15.695Z,275
2017-08-21T07:32:56.237Z,290
2017-08-21T07:33:36.779Z,355
2017-08-21T07:34:17.315Z,455
2017-08-21T07:34:57.861Z,575
2017-08-21T07:35:38.404Z,720
2017-08-21T07:36:18.949Z,850
2017-08-21T07:36:59.475Z,955
2017-08-21T07:37:40.015Z,1000
2017-08-21T07:38:20.553Z,1000
2017-08-21T07:39:01.104Z,990
2017-08-21T07:39:41.631Z,995
2017-08-21T07:40:22.188Z,990
2017-08-21T07:41:02.734Z,970
2017-08-21T07:41:43.273Z,960
2017-08-21T07:42:23.817Z,1005
2017-08-21T07:43:04.361Z,1035
2017-08-21T07:43:44.903Z,1070
2017-08-21T07:44:25.454Z,1085
2017-08-21T07:45:05.983Z,1115
2017-08-21T07:45:46.526Z,1120
2017-08-21T07:46:27.068Z,1110
2017-08-21T07:47:07.604Z,1110
2017-08-21T07:47:48.142Z,1115
2017-08-21T07:48:28.691Z,1135
2017-08-21T07:49:09.228Z,1145
2017-08-21T07:49:49.773Z,1130
2017-08-21T07:50:30.314Z,1120
2017-08-21T07:51:10.849Z,1125
2017-08-21T07:51:51.387Z,1110
2017-08-21T07:52:31.930Z,1125
2017-08-21T07:53:12.471Z,1130
2017-08-21T07:53:53.020Z,1155
2017-08-21T07:54:33.562Z,1175
2017-08-21T07:55:14.101Z,1165
2017-08-21T07:55:54.650Z,1170
2017-08-21T07:56:35.188Z,1180
2017-08-21T07:57:15.746Z,1200
2017-08-21T07:57:56.289Z,1195
2017-08-21T07:58:36.832Z,1225
2017-08-21T07:59:17.380Z,1255
2017-08-21T07:59:57.925Z,1270
2017-08-21T08:00:38.480Z,1285
2017-08-21T08:01:19.026Z,1285
2017-08-21T08:01:59.578Z,1260
2017-08-21T08:02:40.124Z,1225
2017-08-21T08:03:20.661Z,1220
2017-08-21T08:04:01.196Z,1210
2017-08-21T08:04:41.730Z,1235
2017-08-21T08:05:22.260Z,1250
2017-08-21T08:06:02.801Z,1250
2017-08-21T08:06:43.337Z,1245
2017-08-21T08:07:23.876Z,1235
2017-08-21T08:08:04.416Z,1215
2017-08-21T08:08:44.946Z,1215
2017-08-21T08:09:25.488Z,1245
2017-08-21T08:10:06.028Z,1265
2017-08-21T08:10:46.570Z,1295
2017-08-21T08:11:27.116Z,1340
2017-08-21T08:12:07.656Z,1375
2017-08-21T08:12:48.201Z,1395
2017-08-21T08:13:28.740Z,1400
2017-08-21T08:14:09.321Z,1410
2017-08-21T08:14:49.834Z,1425
2017-08-21T08:15:30.370Z,1450
2017-08-21T08:16:10.912Z,1490
2017-08-21T08:16:51.456Z,1500
2017-08-21T08:17:31.996Z,1515
2017-08-21T08:18:12.537Z,1530
2017-08-21T08:18:53.080Z,1555
2017-08-21T08:19:33.626Z,1565
2017-08-21T08:20:14.175Z,1575
2017-08-21T08:20:54.736Z,1570
2017-08-21T08:21:35.281Z,1570
2017-08-21T08:22:15.833Z,1580
2017-08-21T08:22:56.376Z,1585
2017-08-21T08:23:36.927Z,1605
2017-08-21T08:24:17.465Z,1660
2017-08-21T08:24:58.010Z,1665
2017-08-21T08:25:38.545Z,1685
2017-08-21T08:26:19.074Z,1690
2017-08-21T08:26:59.605Z,1690
2017-08-21T08:27:40.154Z,1700
2017-08-21T08:28:20.700Z,1720
2017-08-21T08:29:01.256Z,1740
2017-08-21T08:29:41.790Z,1750
2017-08-21T08:30:22.338Z,1750
2017-08-21T08:31:03.179Z,1765
2017-08-21T08:31:43.729Z,1770
2017-08-21T08:32:24.260Z,1750
2017-08-21T08:33:04.813Z,1740
2017-08-21T08:33:45.353Z,1730
2017-08-21T08:34:25.895Z,1735
2017-08-21T08:35:06.475Z,1745
2017-08-21T08:35:47.012Z,1760
2017-08-21T08:36:27.549Z,1785
2017-08-21T08:37:08.078Z,1785
2017-08-21T08:37:48.621Z,1770
2017-08-21T08:38:29.167Z,1785
2017-08-21T08:39:09.711Z,1795
2017-08-21T08:39:50.253Z,1820
2017-08-21T08:40:30.804Z,1800
2017-08-21T08:41:11.354Z,1810
2017-08-21T08:41:51.893Z,1820
2017-08-21T08:42:32.444Z,1860
2017-08-21T08:43:12.988Z,1905
2017-08-21T08:43:53.533Z,1930
2017-08-21T08:44:34.075Z,1965
2017-08-21T08:45:14.626Z,1980
2017-08-21T08:45:55.176Z,1945
2017-08-21T08:46:35.703Z,1890
2017-08-21T08:47:16.251Z,1840
2017-08-21T08:47:56.793Z,1840
2017-08-21T08:48:37.335Z,1805
2017-08-21T08:49:17.879Z,1800
2017-08-21T08:49:58.423Z,1745
2017-08-21T08:50:38.968Z,1610
2017-08-21T08:51:19.515Z,1420
2017-08-21T08:52:00.057Z,1210
2017-08-21T08:52:40.615Z,1010
2017-08-21T08:53:21.160Z,800
2017-08-21T08:54:01.707Z,600
2017-08-21T08:54:42.257Z,530
2017-08-21T08:55:22.805Z,510
2017-08-21T08:56:03.349Z,505
2017-08-21T08:56:43.888Z,510
2017-08-21T08:57:24.423Z,510
2017-08-21T08:58:04.962Z,510
2017-08-21T08:58:45.524Z,510
2017-08-21T08:59:26.047Z,510
2017-08-21T09:00:06.604Z,510
2017-08-21T09:00:47.139Z,515
2017-08-21T09:01:27.702Z,520
2017-08-21T09:02:08.250Z,520
2017-08-21T09:02:48.797Z,520
2017-08-21T09:03:29.343Z,530
2017-08-21T09:04:09.887Z,550
2017-08-21T09:04:50.422Z,760
2017-08-21T09:05:30.971Z,1235
2017-08-21T09:06:11.512Z,1745
2017-08-21T09:06:52.059Z,1980
2017-08-21T09:07:32.616Z,1845
2017-08-21T09:08:13.155Z,1380
2017-08-21T09:08:53.716Z,875
2017-08-21T09:09:34.264Z,600
2017-08-21T09:10:14.803Z,565
2017-08-21T09:10:55.378Z,560
2017-08-21T09:11:35.928Z,560
2017-08-21T09:12:16.476Z,560
2017-08-21T09:12:57.019Z,560
2017-08-21T09:13:37.568Z,565
2017-08-21T09:14:18.116Z,565
2017-08-21T09:14:58.696Z,565
2017-08-21T09:15:39.249Z,570
2017-08-21T09:16:19.798Z,570
2017-08-21T09:17:00.351Z,570
2017-08-21T09:17:40.886Z,570
2017-08-21T09:18:21.435Z,575
2017-08-21T09:19:01.983Z,575
2017-08-21T09:19:42.528Z,575
2017-08-21T09:20:23.080Z,580
2017-08-21T09:21:03.635Z,580
2017-08-21T09:21:44.185Z,590
2017-08-21T09:22:24.733Z,585
2017-08-21T09:23:05.272Z,590
2017-08-21T09:23:45.821Z,595
2017-08-21T09:24:26.391Z,595
2017-08-21T09:25:06.939Z,600
2017-08-21T09:25:47.497Z,605
2017-08-21T09:26:28.046Z,605
2017-08-21T09:27:08.596Z,610
2017-08-21T09:27:49.142Z,610
2017-08-21T09:28:29.687Z,620
2017-08-21T09:29:10.232Z,635
2017-08-21T09:29:50.782Z,650
2017-08-21T09:30:31.308Z,680
2017-08-21T09:31:11.852Z,805
2017-08-21T09:31:52.390Z,1025
2017-08-21T09:32:32.940Z,1300
2017-08-21T09:33:13.490Z,1600
2017-08-21T09:33:54.040Z,1885
2017-08-21T09:34:34.582Z,2150
2017-08-21T09:35:15.199Z,2325
2017-08-21T09:35:55.756Z,2400
2017-08-21T09:36:36.306Z,2405
2017-08-21T09:37:16.853Z,2345
2017-08-21T09:37:57.400Z,2350
2017-08-21T09:38:37.941Z,2340
2017-08-21T09:39:18.493Z,2335